Time;durP1;ratioP1;P1;durP2;ratioP2;P2;SDS_P1;SDS_P2;PMS_P1;PMS_P2;Temp;Humidity;BMP_temperature;BMP_pressure;BME280_temperature;BME280_humidity;BME280_pressure;Samples;Min_cycle;Max_cycle;Signal;HPM_P1;HPM_P2
2023/06/13 00:02:16;;;;;;;6.00;5.47;;;;;;;18.62;46.41;156148.84;5007123;28;20445;-80
2023/06/13 00:04:43;;;;;;;5.60;5.07;;;;;;;18.66;46.29;156158.00;5021124;28;20444;-80
2023/06/13 00:07:09;;;;;;;5.67;4.97;;;;;;;18.64;46.35;156152.75;5005098;28;20468;-80
2023/06/13 00:09:36;;;;;;;5.00;4.60;;;;;;;18.52;46.64;156121.50;5037250;28;20480;-80
2023/06/13 00:12:03;;;;;;;5.90;5.30;;;;;;;18.54;46.67;156126.69;5021421;28;20491;-81
2023/06/13 00:14:30;;;;;;;7.00;5.50;;;;;;;18.49;46.85;156113.66;5008331;28;20452;-80
2023/06/13 00:17:00;;;;;;;5.77;5.27;;;;;;;18.45;47.02;156103.22;5003308;28;20469;-80
2023/06/13 00:19:28;;;;;;;9.03;5.70;;;;;;;18.46;47.14;156107.09;4999578;28;20442;-80
2023/06/13 00:21:56;;;;;;;6.67;6.07;;;;;;;18.42;47.27;156095.41;5017371;28;20951;-80
2023/06/13 00:24:22;;;;;;;5.63;5.07;;;;;;;18.42;47.19;156095.41;5005495;28;20461;-81
2023/06/13 00:26:49;;;;;;;5.40;4.90;;;;;;;18.36;47.67;156081.06;5037152;28;20441;-80
2023/06/13 00:29:15;;;;;;;5.97;5.10;;;;;;;18.23;48.17;156047.22;5007436;28;20492;-80
2023/06/13 00:31:43;;;;;;;7.10;5.30;;;;;;;18.21;48.04;156043.28;4992459;28;20449;-80
2023/06/13 00:34:12;;;;;;;5.53;4.97;;;;;;;18.17;48.15;156032.88;5022762;28;20623;-80
2023/06/13 00:36:38;;;;;;;5.17;4.63;;;;;;;18.08;48.45;156009.41;5004876;28;20448;-80
2023/06/13 00:39:06;;;;;;;7.20;5.90;;;;;;;18.00;48.76;155987.31;5007015;28;20464;-80
2023/06/13 00:41:33;;;;;;;6.07;5.47;;;;;;;17.99;49.03;155986.00;5008346;28;20428;-80
2023/06/13 00:44:00;;;;;;;5.40;4.90;;;;;;;17.96;49.18;155978.19;5023835;28;20441;-80
2023/06/13 00:46:34;;;;;;;6.00;4.90;;;;;;;17.89;49.09;155959.97;5005847;28;20441;-80
2023/06/13 00:49:01;;;;;;;5.47;4.97;;;;;;;17.86;49.66;155950.84;5037992;28;20840;-80
2023/06/13 00:51:30;;;;;;;5.10;4.47;;;;;;;17.81;50.14;155937.84;5012607;28;20441;-80
2023/06/13 00:53:59;;;;;;;7.27;5.33;;;;;;;17.78;49.75;155931.31;5008036;28;20503;-80
2023/06/13 00:56:28;;;;;;;5.37;4.87;;;;;;;17.66;50.51;155898.78;5011297;28;20449;-80
2023/06/13 00:58:57;;;;;;;5.57;5.00;;;;;;;17.66;50.62;155898.78;5002737;28;20824;-80
2023/06/13 01:01:24;;;;;;;12.10;5.70;;;;;;;17.59;50.75;155881.84;5006473;28;20825;-80
2023/06/13 01:03:52;;;;;;;6.43;5.27;;;;;;;17.59;50.74;155881.84;5011035;28;20846;-80
2023/06/13 01:06:18;;;;;;;5.40;4.90;;;;;;;17.49;50.99;155857.09;5011781;28;20528;-80
2023/06/13 01:08:47;;;;;;;4.83;4.40;;;;;;;17.41;51.57;155834.94;5003208;28;20484;-80
2023/06/13 01:11:17;;;;;;;5.87;4.90;;;;;;;17.35;51.71;155820.63;5007108;28;20483;-80
2023/06/13 01:13:48;;;;;;;6.70;5.00;;;;;;;17.31;51.72;155808.91;5005290;28;20457;-80
2023/06/13 01:16:22;;;;;;;7.70;5.33;;;;;;;17.23;52.28;155788.09;5004037;28;20442;-80
2023/06/13 01:18:52;;;;;;;5.33;4.83;;;;;;;17.22;52.22;155785.47;5007092;28;20515;-80
2023/06/13 01:21:18;;;;;;;7.87;5.30;;;;;;;17.15;52.52;155767.28;5007306;28;20563;-80
2023/06/13 01:23:53;;;;;;;8.97;4.80;;;;;;;17.11;52.79;155756.84;5019786;28;20461;-80
2023/06/13 01:26:36;;;;;;;5.90;5.10;;;;;;;17.02;53.22;155734.75;5020716;28;20543;-80
2023/06/13 01:29:04;;;;;;;5.33;4.83;;;;;;;17.03;53.00;155738.63;5003549;28;20507;-80
2023/06/13 01:31:33;;;;;;;5.77;5.17;;;;;;;16.99;53.31;155728.25;5008433;28;20443;-80
2023/06/13 01:34:00;;;;;;;4.60;4.20;;;;;;;16.98;53.57;155725.63;5006881;28;20515;-80
2023/06/13 01:36:26;;;;;;;6.60;5.10;;;;;;;16.94;53.59;155715.19;5004512;28;20453;-80
2023/06/13 01:38:54;;;;;;;6.00;5.00;;;;;;;16.90;53.88;155703.50;5005496;28;20453;-80
2023/06/13 01:41:20;;;;;;;6.43;5.30;;;;;;;16.84;54.22;155687.88;5010308;28;20496;-80
2023/06/13 01:43:48;;;;;;;5.60;4.93;;;;;;;16.85;54.12;155691.81;5006682;28;20499;-80
2023/06/13 01:46:20;;;;;;;6.70;5.40;;;;;;;16.78;54.30;155672.28;5020819;28;20983;-80
2023/06/13 01:48:52;;;;;;;5.27;4.60;;;;;;;16.73;54.52;155660.53;5015590;28;20468;-80
2023/06/13 01:51:25;;;;;;;7.30;5.80;;;;;;;16.65;54.61;155639.78;4989771;28;20547;-80
2023/06/13 01:53:55;;;;;;;5.00;4.50;;;;;;;16.72;54.77;155656.66;4998861;28;20461;-80
2023/06/13 01:56:27;;;;;;;5.10;4.60;;;;;;;16.63;55.41;155633.22;5008412;28;20456;-80
2023/06/13 01:58:57;;;;;;;5.23;4.70;;;;;;;16.60;55.17;155626.72;4994668;28;20804;-80
2023/06/13 02:01:25;;;;;;;6.73;4.73;;;;;;;16.62;55.42;155631.97;5022061;28;20480;-80
2023/06/13 02:03:51;;;;;;;5.10;4.60;;;;;;;16.57;55.65;155617.66;5038347;28;20447;-80
2023/06/13 02:06:18;;;;;;;5.77;5.20;;;;;;;16.52;55.50;155604.59;5001734;28;20460;-80
2023/06/13 02:08:45;;;;;;;6.40;5.10;;;;;;;16.51;55.44;155601.97;5008014;28;20492;-80
2023/06/13 02:11:13;;;;;;;6.00;4.60;;;;;;;16.47;55.90;155592.88;5005250;28;20457;-80
2023/06/13 02:13:39;;;;;;;6.40;4.90;;;;;;;16.43;55.79;155582.47;5002754;28;20452;-80
2023/06/13 02:16:08;;;;;;;5.30;4.80;;;;;;;16.40;56.13;155574.66;5005942;28;20464;-80
2023/06/13 02:18:35;;;;;;;5.50;4.60;;;;;;;16.30;56.42;155549.97;5006370;28;20463;-80
2023/06/13 02:21:01;;;;;;;6.53;5.50;;;;;;;16.36;56.41;155564.28;5006457;28;20480;-80
2023/06/13 02:23:28;;;;;;;5.47;4.97;;;;;;;16.27;56.63;155542.16;5019863;28;21016;-80
2023/06/13 02:25:56;;;;;;;8.43;5.03;;;;;;;16.28;56.55;155543.47;5002588;28;20814;-80
2023/06/13 02:28:22;;;;;;;5.70;5.20;;;;;;;16.18;56.71;155518.75;5006065;28;20846;-80
2023/06/13 02:30:49;;;;;;;5.90;4.90;;;;;;;16.21;56.88;155525.25;5005551;28;20527;-80
2023/06/13 02:33:18;;;;;;;5.10;4.57;;;;;;;16.15;56.95;155510.94;5021936;28;20453;-79
2023/06/13 02:35:46;;;;;;;5.73;4.63;;;;;;;16.11;57.00;155500.56;5020354;28;20868;-80
2023/06/13 02:38:13;;;;;;;5.20;4.70;;;;;;;16.07;57.04;155488.88;5002134;28;20824;-80
2023/06/13 02:40:39;;;;;;;6.67;5.30;;;;;;;16.07;57.21;155488.88;5003108;28;20457;-80
2023/06/13 02:43:06;;;;;;;5.30;4.67;;;;;;;16.03;57.40;155479.75;5020449;28;20457;-80
2023/06/13 02:45:33;;;;;;;5.13;4.30;;;;;;;16.01;57.38;155473.25;5020154;28;20860;-80
2023/06/13 02:47:59;;;;;;;7.37;5.03;;;;;;;15.99;57.32;155468.06;5007640;28;20481;-80
2023/06/13 02:50:27;;;;;;;4.73;4.23;;;;;;;15.91;57.49;155448.56;5042465;28;21012;-80
2023/06/13 02:52:54;;;;;;;6.03;4.60;;;;;;;15.92;57.58;155451.13;5005792;28;20467;-80
2023/06/13 02:55:20;;;;;;;6.00;5.17;;;;;;;15.90;57.62;155444.63;5002956;28;20460;-80
2023/06/13 02:57:47;;;;;;;6.67;4.90;;;;;;;15.86;57.75;155434.25;5007918;28;20463;-80
2023/06/13 03:00:15;;;;;;;5.50;4.63;;;;;;;15.86;57.82;155434.25;4997503;28;20484;-80
2023/06/13 03:02:45;;;;;;;5.17;4.67;;;;;;;15.84;57.87;155430.31;5011461;28;20564;-80
2023/06/13 03:05:14;;;;;;;6.30;4.37;;;;;;;15.76;58.19;155410.84;5041409;28;20449;-80
2023/06/13 03:07:42;;;;;;;5.77;5.13;;;;;;;15.72;58.48;155400.47;5009575;28;20550;-80
2023/06/13 03:10:10;;;;;;;5.40;4.90;;;;;;;15.73;58.18;155403.03;5039821;28;20897;-80
2023/06/13 03:12:40;;;;;;;5.10;4.60;;;;;;;15.77;58.24;155412.13;5019514;28;20457;-80
2023/06/13 03:15:08;;;;;;;5.70;4.00;;;;;;;15.66;58.68;155384.84;5008985;28;20451;-80
2023/06/13 03:17:35;;;;;;;5.10;4.57;;;;;;;15.72;58.24;155399.16;5035163;28;20506;-80
2023/06/13 03:20:05;;;;;;;5.73;5.13;;;;;;;15.78;57.87;155416.03;5009468;28;20600;-80
2023/06/13 03:22:33;;;;;;;4.97;4.17;;;;;;;15.82;57.74;155426.44;5033820;28;20554;-80
2023/06/13 03:25:04;;;;;;;7.00;4.67;;;;;;;15.79;57.91;155417.34;4994017;28;20465;-80
2023/06/13 03:27:32;;;;;;;6.67;4.83;;;;;;;15.73;57.96;155403.03;5035736;28;20445;-80
2023/06/13 03:29:59;;;;;;;4.90;3.93;;;;;;;15.69;58.02;155392.66;5023503;28;20598;-80
2023/06/13 03:32:26;;;;;;;5.50;4.83;;;;;;;15.70;57.84;155395.22;5025389;28;20459;-80
2023/06/13 03:34:52;;;;;;;7.43;5.00;;;;;;;15.68;57.77;155390.03;5007921;28;20514;-80
2023/06/13 03:37:19;;;;;;;4.57;4.13;;;;;;;15.69;57.47;155392.66;5021713;28;20449;-80
2023/06/13 03:39:46;;;;;;;5.27;4.77;;;;;;;15.75;57.72;155408.22;5002962;28;20465;-80
2023/06/13 03:42:14;;;;;;;4.50;3.80;;;;;;;15.65;57.83;155382.22;5021691;28;20970;-80
2023/06/13 03:44:46;;;;;;;5.10;4.30;;;;;;;15.66;57.84;155384.84;5009967;28;20475;-80
2023/06/13 03:47:13;;;;;;;4.70;4.20;;;;;;;15.69;57.30;155391.34;4995485;28;20972;-80
2023/06/13 03:49:39;;;;;;;4.93;4.43;;;;;;;15.68;57.40;155388.72;5036198;28;20488;-80
2023/06/13 03:52:07;;;;;;;5.43;4.33;;;;;;;15.63;57.66;155377.03;5002707;28;20491;-80
2023/06/13 03:54:34;;;;;;;6.17;4.73;;;;;;;15.68;57.42;155388.72;5009706;28;20460;-80
2023/06/13 03:57:00;;;;;;;8.47;4.60;;;;;;;15.67;57.37;155386.16;5010883;28;20874;-80
2023/06/13 03:59:28;;;;;;;5.77;3.90;;;;;;;15.66;57.57;155384.84;5009636;28;20860;-80
2023/06/13 04:01:55;;;;;;;6.07;4.40;;;;;;;15.65;57.63;155382.22;5017383;28;20451;-79
2023/06/13 04:04:21;;;;;;;4.73;4.30;;;;;;;15.66;57.74;155384.84;5024585;28;20849;-79
2023/06/13 04:06:49;;;;;;;4.63;4.23;;;;;;;15.77;57.49;155412.13;5007920;28;20454;-79
2023/06/13 04:09:17;;;;;;;5.07;4.43;;;;;;;15.79;56.85;155418.63;5002440;28;20504;-79
2023/06/13 04:11:44;;;;;;;5.77;4.40;;;;;;;16.02;56.74;155475.88;5029038;28;20898;-79
2023/06/13 04:14:10;;;;;;;6.23;3.90;;;;;;;16.18;56.01;155517.44;5002709;28;20450;-79
2023/06/13 04:16:38;;;;;;;4.07;3.70;;;;;;;16.26;55.48;155539.56;5021308;28;20447;-79
2023/06/13 04:19:07;;;;;;;5.70;4.20;;;;;;;16.40;55.32;155574.66;5032228;28;21131;-79
2023/06/13 04:21:33;;;;;;;5.23;4.00;;;;;;;16.57;54.74;155618.97;5008643;28;20963;-79
2023/06/13 04:24:00;;;;;;;4.67;3.93;;;;;;;16.82;54.36;155684.00;5032985;28;20460;-80
2023/06/13 04:26:28;;;;;;;5.33;4.57;;;;;;;16.96;53.51;155720.44;5008718;28;20461;-80
2023/06/13 04:28:55;;;;;;;6.23;4.50;;;;;;;17.16;53.12;155769.84;5021591;28;20495;-80
2023/06/13 04:31:22;;;;;;;4.77;4.37;;;;;;;17.37;52.31;155825.81;5006583;28;20524;-80
2023/06/13 04:33:55;;;;;;;5.40;4.50;;;;;;;17.53;51.95;155867.53;5003899;28;20463;-80
2023/06/13 04:36:23;;;;;;;4.40;4.00;;;;;;;17.67;51.10;155901.38;5024992;28;20460;-80
2023/06/13 04:38:53;;;;;;;5.63;4.23;;;;;;;17.81;50.91;155939.16;5021517;28;20515;-80
2023/06/13 04:41:19;;;;;;;4.90;4.23;;;;;;;17.94;50.26;155971.69;4998486;28;20496;-80
2023/06/13 04:43:46;;;;;;;8.63;4.60;;;;;;;18.03;49.60;155995.16;5036695;28;20480;-80
2023/06/13 04:46:18;;;;;;;4.00;3.60;;;;;;;17.88;50.05;155957.34;5024941;28;20927;-80
2023/06/13 04:48:44;;;;;;;5.23;4.00;;;;;;;18.00;50.04;155987.31;5010565;28;21018;-80
2023/06/13 04:51:12;;;;;;;5.10;3.97;;;;;;;18.19;50.46;156038.09;4993105;28;20479;-81
2023/06/13 04:53:39;;;;;;;6.00;4.40;;;;;;;18.44;49.52;156100.59;4999749;28;20458;-81
2023/06/13 04:56:06;;;;;;;5.13;4.30;;;;;;;18.68;48.65;156163.19;4995936;28;20471;-81
2023/06/13 04:58:32;;;;;;;8.17;4.47;;;;;;;18.88;47.92;156214.03;5017894;28;20560;-80
2023/06/13 05:00:59;;;;;;;5.30;4.43;;;;;;;18.81;47.45;156198.38;4998058;28;20472;-80
2023/06/13 05:03:27;;;;;;;7.60;4.40;;;;;;;18.72;47.58;156173.59;4999965;28;20515;-80
2023/06/13 05:05:53;;;;;;;4.50;4.10;;;;;;;18.69;47.88;156167.06;5016908;28;20460;-80
2023/06/13 05:08:21;;;;;;;4.80;4.13;;;;;;;18.74;47.51;156180.09;5002876;28;20467;-80
2023/06/13 05:10:48;;;;;;;5.37;4.87;;;;;;;19.00;47.35;156245.28;5000630;28;20506;-81
2023/06/13 05:13:15;;;;;;;5.10;4.13;;;;;;;18.91;47.03;156221.78;5017029;28;20460;-80
2023/06/13 05:15:45;;;;;;;4.70;4.23;;;;;;;18.87;46.79;156212.72;5035553;28;20869;-80
2023/06/13 05:18:13;;;;;;;5.90;4.30;;;;;;;19.02;46.71;156250.47;5017411;28;20820;-81
2023/06/13 05:20:39;;;;;;;4.93;4.30;;;;;;;19.34;45.74;156335.19;5019168;28;20460;-80
2023/06/13 05:23:10;;;;;;;4.50;3.90;;;;;;;19.24;45.76;156309.13;5003614;28;20542;-80
2023/06/13 05:25:38;;;;;;;3.77;3.30;;;;;;;19.15;44.31;156285.66;5004076;28;20453;-81
2023/06/13 05:28:05;;;;;;;6.90;4.80;;;;;;;19.35;45.01;156336.50;5001472;28;20456;-80
2023/06/13 05:30:32;;;;;;;8.17;4.00;;;;;;;19.34;44.26;156335.19;5018507;28;20477;-81
2023/06/13 05:33:01;;;;;;;4.60;3.97;;;;;;;19.46;43.45;156363.94;5036250;28;20511;-81
2023/06/13 05:35:28;;;;;;;4.30;3.90;;;;;;;19.48;43.06;156370.44;5004131;28;21014;-80
2023/06/13 05:37:59;;;;;;;6.00;3.40;;;;;;;19.39;43.10;156348.28;5005032;28;20876;-80
2023/06/13 05:40:26;;;;;;;4.23;3.77;;;;;;;19.14;42.58;156283.03;5020284;28;20503;-80
2023/06/13 05:42:54;;;;;;;4.13;3.83;;;;;;;19.38;42.25;156345.66;5018044;28;20457;-80
2023/06/13 05:45:21;;;;;;;4.77;3.90;;;;;;;19.58;41.48;156395.19;5002725;28;20464;-81
2023/06/13 05:47:48;;;;;;;5.00;4.13;;;;;;;19.61;42.09;156403.03;5004345;28;20526;-81
2023/06/13 05:50:17;;;;;;;5.90;4.40;;;;;;;19.95;41.07;156493.00;5003187;28;20488;-80
2023/06/13 05:52:44;;;;;;;4.23;3.53;;;;;;;19.96;40.62;156494.31;5035271;23;20523;-82
2023/06/13 05:55:10;;;;;;;3.90;3.60;;;;;;;19.90;39.87;156478.66;4967950;28;20571;-84
2023/06/13 05:57:39;;;;;;;4.17;3.60;;;;;;;19.82;39.73;156457.78;4983830;28;20461;-84
2023/06/13 06:00:11;;;;;;;4.70;3.97;;;;;;;19.78;39.87;156447.31;4983390;28;20469;-84
2023/06/13 06:02:39;;;;;;;4.00;3.70;;;;;;;19.74;40.50;156436.91;4980251;28;20565;-85
2023/06/13 06:05:24;;;;;;;7.93;4.07;;;;;;;19.98;39.37;156499.50;4984025;28;20564;-86
2023/06/13 06:07:50;;;;;;;6.10;5.57;;;;;;;19.80;39.40;156452.59;4983119;28;20479;-86
2023/06/13 06:10:17;;;;;;;4.60;4.20;;;;;;;19.91;40.52;156481.22;4985197;28;20512;-86
2023/06/13 06:12:44;;;;;;;4.50;4.10;;;;;;;20.25;39.68;156570.00;4982833;28;20453;-85
2023/06/13 06:15:12;;;;;;;4.83;4.30;;;;;;;20.22;39.34;156562.13;4982799;28;20465;-86
2023/06/13 06:17:39;;;;;;;3.53;3.23;;;;;;;20.28;39.96;156577.78;4984093;28;20469;-83
2023/06/13 06:20:07;;;;;;;6.10;4.40;;;;;;;20.69;39.25;156682.16;4973684;28;20453;-84
2023/06/13 06:22:33;;;;;;;4.77;3.93;;;;;;;21.06;37.80;156778.69;4984451;28;21080;-84
2023/06/13 06:25:00;;;;;;;7.17;4.70;;;;;;;20.98;37.26;156757.81;4987542;28;20469;-84
2023/06/13 06:27:27;;;;;;;6.13;4.30;;;;;;;20.85;37.55;156723.91;4987552;28;20461;-84
2023/06/13 06:29:53;;;;;;;4.63;4.23;;;;;;;20.77;37.67;156703.03;4953051;28;20465;-84
2023/06/13 06:32:21;;;;;;;6.33;3.87;;;;;;;20.96;36.81;156752.63;4976541;28;20473;-83
2023/06/13 06:34:47;;;;;;;4.70;3.63;;;;;;;20.81;36.46;156713.47;4983187;28;20457;-84
2023/06/13 06:37:14;;;;;;;4.33;3.93;;;;;;;21.06;36.81;156780.06;4988868;28;20811;-83
2023/06/13 06:39:41;;;;;;;5.37;4.10;;;;;;;21.15;36.19;156802.25;4970601;28;20462;-84
2023/06/13 06:42:08;;;;;;;4.80;4.13;;;;;;;20.76;37.71;156701.72;4961778;28;20449;-84
2023/06/13 06:44:53;;;;;;;4.50;4.10;;;;;;;20.70;37.00;156686.09;4968107;28;20934;-84
2023/06/13 06:47:21;;;;;;;4.80;3.80;;;;;;;20.71;37.17;156687.34;4961355;28;20476;-86
2023/06/13 06:49:47;;;;;;;4.80;4.00;;;;;;;20.85;37.76;156725.22;4989086;28;20461;-86
2023/06/13 06:52:14;;;;;;;5.67;3.90;;;;;;;21.16;37.51;156804.84;4989309;28;20473;-86
2023/06/13 06:54:41;;;;;;;8.53;4.07;;;;;;;21.40;36.35;156867.50;4973163;28;20494;-85
2023/06/13 06:57:07;;;;;;;4.17;3.77;;;;;;;21.62;36.10;156923.63;4970023;28;20462;-86
2023/06/13 06:59:34;;;;;;;5.07;3.93;;;;;;;21.12;36.96;156794.44;4959207;28;20466;-86
2023/06/13 07:02:00;;;;;;;4.10;3.70;;;;;;;21.26;36.78;156829.66;4968688;28;20478;-85
2023/06/13 07:04:28;;;;;;;5.33;4.10;;;;;;;21.17;35.37;156807.47;4982373;28;20470;-86
2023/06/13 07:06:55;;;;;;;5.30;4.00;;;;;;;21.07;35.31;156782.69;4982629;28;20504;-86
2023/06/13 07:09:21;;;;;;;4.37;3.70;;;;;;;21.10;35.54;156789.22;4967004;28;20458;-86
2023/06/13 07:11:48;;;;;;;6.43;4.00;;;;;;;21.33;35.40;156849.25;4966636;28;20505;-86
2023/06/13 07:14:15;;;;;;;10.00;4.43;;;;;;;21.18;35.09;156811.38;4982361;28;21073;-87
2023/06/13 07:16:41;;;;;;;4.50;4.10;;;;;;;21.23;35.06;156824.41;4983569;28;20464;-87
2023/06/13 07:19:08;;;;;;;4.37;4.00;;;;;;;21.29;35.19;156838.78;4976116;28;20492;-87
2023/06/13 07:21:36;;;;;;;4.73;4.17;;;;;;;21.23;34.82;156823.16;4986924;28;20657;-87
2023/06/13 07:24:03;;;;;;;8.60;3.73;;;;;;;21.17;35.44;156807.47;4985279;28;20489;-87
2023/06/13 07:26:29;;;;;;;4.30;4.00;;;;;;;21.26;36.27;156829.66;4983464;28;20461;-86
2023/06/13 07:28:56;;;;;;;4.70;4.03;;;;;;;21.61;35.54;156922.31;4999780;28;20457;-86
2023/06/13 07:31:23;;;;;;;5.10;4.10;;;;;;;21.95;34.06;157008.56;4983962;28;20480;-86
2023/06/13 07:33:50;;;;;;;5.90;4.20;;;;;;;21.98;34.46;157016.38;4985094;28;20462;-87
2023/06/13 07:36:19;;;;;;;4.70;4.30;;;;;;;21.91;33.53;156998.09;5002423;28;20488;-87
2023/06/13 07:38:47;;;;;;;4.53;4.07;;;;;;;21.84;34.33;156982.38;5001671;28;20843;-87
2023/06/13 07:41:13;;;;;;;4.07;3.67;;;;;;;21.72;34.27;156951.06;4966332;28;20541;-87
2023/06/13 07:43:40;;;;;;;5.30;4.00;;;;;;;21.61;34.54;156922.31;4970917;28;20489;-87
2023/06/13 07:46:07;;;;;;;4.73;4.33;;;;;;;21.93;34.59;157003.31;4986329;28;20458;-86
2023/06/13 07:48:33;;;;;;;3.90;3.50;;;;;;;22.25;34.41;157086.91;4986389;28;20457;-86
2023/06/13 07:51:00;;;;;;;4.90;4.00;;;;;;;22.80;34.40;157230.63;5001705;28;20983;-87
2023/06/13 07:53:27;;;;;;;5.80;4.50;;;;;;;22.64;33.24;157188.81;4986353;28;20485;-87
2023/06/13 07:55:55;;;;;;;3.80;3.50;;;;;;;22.85;33.00;157243.69;5001489;28;20455;-87
2023/06/13 07:58:22;;;;;;;5.13;3.70;;;;;;;22.58;33.50;157171.81;4984350;28;20461;-87
2023/06/13 08:00:50;;;;;;;5.83;3.87;;;;;;;22.63;34.56;157184.94;4985623;28;20544;-87
2023/06/13 08:03:16;;;;;;;4.77;4.00;;;;;;;22.69;32.51;157200.63;4999536;28;20458;-87
2023/06/13 08:05:43;;;;;;;8.37;4.97;;;;;;;22.58;32.77;157171.81;4997108;28;20449;-78
2023/06/13 08:08:10;;;;;;;7.43;4.57;;;;;;;22.42;32.86;157132.59;4997522;28;20473;-78
2023/06/13 08:10:36;;;;;;;5.13;4.50;;;;;;;22.66;33.61;157192.78;4981819;28;20567;-79
2023/06/13 08:13:04;;;;;;;4.10;3.70;;;;;;;22.54;33.25;157162.66;4984566;28;20564;-79
2023/06/13 08:15:36;;;;;;;4.77;4.10;;;;;;;22.54;33.14;157162.66;4984812;28;20476;-78
2023/06/13 08:18:02;;;;;;;4.97;4.50;;;;;;;22.63;33.66;157186.25;4985564;28;20880;-79
2023/06/13 08:20:29;;;;;;;4.43;4.03;;;;;;;22.96;33.25;157271.13;4983515;28;20473;-78
2023/06/13 08:22:56;;;;;;;5.70;4.10;;;;;;;23.16;32.62;157322.13;5000375;28;20491;-78
2023/06/13 08:25:22;;;;;;;6.70;4.10;;;;;;;23.38;31.25;157380.97;5000647;28;20453;-79
2023/06/13 08:27:49;;;;;;;5.73;4.37;;;;;;;23.22;31.88;157337.81;4986694;28;20865;-79
2023/06/13 08:30:17;;;;;;;4.30;3.90;;;;;;;22.76;32.03;157220.22;4986650;28;20449;-79
2023/06/13 08:32:46;;;;;;;5.80;4.10;;;;;;;22.86;32.47;157246.31;5000284;28;20485;-78
2023/06/13 08:35:12;;;;;;;4.20;3.80;;;;;;;22.81;33.00;157233.25;4998798;28;20505;-79
2023/06/13 08:37:39;;;;;;;9.73;3.70;;;;;;;22.86;32.39;157246.31;4999041;28;20764;-78
2023/06/13 08:40:09;;;;;;;5.43;4.20;;;;;;;22.86;32.70;157245.00;4999543;28;20446;-78
2023/06/13 08:42:37;;;;;;;4.80;4.30;;;;;;;23.31;32.68;157361.31;4983858;28;20449;-78
2023/06/13 08:45:04;;;;;;;5.23;4.40;;;;;;;23.53;32.52;157420.22;4984823;28;20468;-78
2023/06/13 08:47:33;;;;;;;4.53;4.10;;;;;;;23.77;33.09;157481.66;5000724;28;20454;-78
2023/06/13 08:50:00;;;;;;;4.27;3.87;;;;;;;23.33;32.01;157366.53;4983883;28;20462;-78
2023/06/13 08:52:30;;;;;;;4.57;4.10;;;;;;;22.66;33.36;157194.09;5000640;28;20474;-78
2023/06/13 08:54:59;;;;;;;4.80;4.07;;;;;;;22.98;33.53;157276.41;5002424;28;20594;-78
2023/06/13 08:57:28;;;;;;;5.33;4.67;;;;;;;23.14;33.50;157316.91;5006806;28;20808;-78
2023/06/13 08:59:56;;;;;;;5.23;4.27;;;;;;;23.25;33.16;157345.63;4995655;28;20462;-78
2023/06/13 09:02:23;;;;;;;6.40;4.10;;;;;;;23.07;32.99;157299.88;5004685;28;20548;-78
2023/06/13 09:04:52;;;;;;;6.13;4.73;;;;;;;23.28;32.92;157353.47;5004066;28;20457;-78
2023/06/13 09:07:18;;;;;;;5.23;4.30;;;;;;;23.44;32.33;157395.34;5005196;28;20444;-78
2023/06/13 09:09:45;;;;;;;10.70;4.90;;;;;;;23.76;32.13;157479.00;4988128;28;20457;-78
2023/06/13 09:12:13;;;;;;;4.93;4.33;;;;;;;23.24;31.39;157344.34;5004652;28;20473;-78
2023/06/13 09:14:40;;;;;;;4.60;4.20;;;;;;;22.91;31.67;157259.38;5003710;28;20453;-78
2023/06/13 09:17:07;;;;;;;9.20;4.03;;;;;;;22.73;31.77;157212.34;5003181;28;20548;-78
2023/06/13 09:19:33;;;;;;;5.13;4.13;;;;;;;22.97;32.64;157275.09;5002620;28;20476;-78
2023/06/13 09:22:01;;;;;;;5.60;4.30;;;;;;;23.38;31.91;157379.63;5004175;28;20458;-78
2023/06/13 09:24:28;;;;;;;6.27;4.40;;;;;;;23.02;30.53;157286.81;4977609;28;20457;-78
2023/06/13 09:26:56;;;;;;;5.00;3.67;;;;;;;22.77;30.93;157221.53;4987351;28;20951;-78
2023/06/13 09:29:31;;;;;;;4.40;4.00;;;;;;;22.61;31.08;157180.94;5003949;28;20453;-78
2023/06/13 09:31:58;;;;;;;4.73;4.33;;;;;;;22.81;32.17;157233.25;5003539;28;21021;-78
2023/06/13 09:34:26;;;;;;;4.90;4.50;;;;;;;23.26;31.10;157348.25;5003251;28;20460;-78
2023/06/13 09:36:53;;;;;;;4.97;4.53;;;;;;;23.29;31.00;157356.09;5002761;28;20515;-78
2023/06/13 09:39:21;;;;;;;4.80;4.33;;;;;;;23.21;30.11;157335.19;5004607;28;20460;-78
2023/06/13 09:41:53;;;;;;;4.47;4.07;;;;;;;23.44;29.65;157395.34;4993248;28;20446;-78
2023/06/13 09:44:20;;;;;;;5.00;4.60;;;;;;;23.27;30.97;157350.88;5004067;28;20451;-78
2023/06/13 09:46:50;;;;;;;6.70;4.87;;;;;;;23.16;31.43;157323.44;4986937;28;20548;-78
2023/06/13 09:49:17;;;;;;;5.40;4.23;;;;;;;23.56;30.50;157426.75;5003377;28;20445;-78
2023/06/13 09:51:44;;;;;;;4.97;4.40;;;;;;;23.34;30.90;157369.16;4987262;28;20468;-78
2023/06/13 09:54:10;;;;;;;6.33;4.67;;;;;;;23.03;31.43;157289.47;5003928;28;20493;-78
2023/06/13 09:56:41;;;;;;;5.30;4.80;;;;;;;22.90;31.69;157256.75;5001419;28;20452;-78
2023/06/13 09:59:07;;;;;;;5.00;4.53;;;;;;;22.66;31.80;157194.09;4985556;28;20464;-78
2023/06/13 10:01:34;;;;;;;8.57;5.17;;;;;;;22.80;31.35;157229.31;5005194;28;20456;-78
2023/06/13 10:04:02;;;;;;;4.00;3.70;;;;;;;23.00;31.84;157282.94;5003918;28;20561;-78
2023/06/13 10:06:29;;;;;;;5.33;4.13;;;;;;;23.11;31.51;157309.06;5004788;28;20522;-78
2023/06/13 10:08:55;;;;;;;4.23;3.83;;;;;;;22.89;30.48;157254.16;4977569;28;20461;-78
2023/06/13 10:11:24;;;;;;;4.30;3.90;;;;;;;22.59;31.20;157175.72;4987970;28;20511;-78
2023/06/13 10:13:56;;;;;;;6.50;4.87;;;;;;;22.39;31.43;157123.47;5003237;28;21011;-78
2023/06/13 10:16:23;;;;;;;4.57;4.17;;;;;;;22.42;31.46;157131.31;5004224;28;20894;-78
2023/06/13 10:18:53;;;;;;;5.13;4.60;;;;;;;22.38;30.59;157122.16;5003527;28;21037;-78
2023/06/13 10:21:20;;;;;;;4.90;4.40;;;;;;;22.64;31.37;157188.81;5004404;28;20441;-78
2023/06/13 10:23:50;;;;;;;8.70;4.40;;;;;;;23.06;30.83;157296.00;5003541;28;20456;-78
2023/06/13 10:26:23;;;;;;;5.03;4.63;;;;;;;23.28;29.34;157354.78;5004579;28;20979;-78
2023/06/13 10:29:17;;;;;;;6.50;4.70;;;;;;;23.23;28.76;157341.72;5003863;28;20453;-78
2023/06/13 10:31:54;;;;;;;8.43;5.13;;;;;;;23.01;29.79;157285.50;5003708;28;20495;-78
2023/06/13 10:34:35;;;;;;;5.63;4.97;;;;;;;23.07;30.17;157298.56;5002888;28;20554;-78
2023/06/13 10:37:32;;;;;;;4.23;3.83;;;;;;;23.11;29.60;157309.06;4994893;28;20535;-78
2023/06/13 10:40:17;;;;;;;4.93;4.50;;;;;;;22.91;29.75;157259.38;5004531;28;20533;-78
2023/06/13 10:42:46;;;;;;;4.07;3.77;;;;;;;22.80;30.12;157229.31;5002106;28;20823;-78
2023/06/13 10:45:18;;;;;;;6.90;4.70;;;;;;;23.06;28.30;157297.25;5002489;28;20456;-78
2023/06/13 10:47:45;;;;;;;8.00;4.80;;;;;;;23.19;27.80;157331.28;4986506;28;20453;-77
2023/06/13 10:50:14;;;;;;;5.00;4.50;;;;;;;23.02;28.49;157286.81;4994996;28;20448;-77
2023/06/13 10:52:43;;;;;;;4.77;4.30;;;;;;;23.16;28.89;157322.13;5002083;28;20476;-78
2023/06/13 10:55:13;;;;;;;5.17;4.13;;;;;;;23.18;29.74;157327.34;5002331;28;20512;-78
2023/06/13 10:57:49;;;;;;;8.03;5.00;;;;;;;23.24;30.09;157344.34;5004073;28;20452;-78
2023/06/13 11:00:28;;;;;;;4.47;4.07;;;;;;;23.22;29.46;157339.06;5001953;28;20471;-78
2023/06/13 11:02:59;;;;;;;4.57;4.17;;;;;;;23.33;29.05;157366.53;5004067;28;20460;-78
2023/06/13 11:05:26;;;;;;;4.90;4.40;;;;;;;23.29;29.46;157357.41;5000406;28;20548;-77
2023/06/13 11:07:53;;;;;;;5.00;4.60;;;;;;;23.43;31.09;157392.75;4996330;28;20460;-78
2023/06/13 11:10:20;;;;;;;4.70;4.30;;;;;;;23.18;31.36;157328.66;4990560;28;20464;-78
2023/06/13 11:12:47;;;;;;;5.27;4.40;;;;;;;23.07;30.65;157298.56;5006563;28;20472;-78
2023/06/13 11:15:21;;;;;;;4.57;4.13;;;;;;;23.04;31.36;157293.34;5006143;28;21068;-78
2023/06/13 11:18:20;;;;;;;5.20;4.70;;;;;;;23.12;31.39;157311.63;5006645;28;20451;-78
2023/06/13 11:20:51;;;;;;;4.63;4.30;;;;;;;23.05;30.46;157294.69;4993437;28;20452;-78
2023/06/13 11:23:18;;;;;;;4.87;4.40;;;;;;;23.19;31.11;157331.28;5007735;28;20476;-78
2023/06/13 11:25:45;;;;;;;4.40;4.00;;;;;;;23.32;30.68;157365.25;5005272;28;20467;-77
2023/06/13 11:28:13;;;;;;;5.47;4.97;;;;;;;23.42;30.81;157390.13;5008415;28;20472;-78
2023/06/13 11:30:41;;;;;;;7.03;4.40;;;;;;;23.00;31.19;157281.63;4987167;28;20452;-77